»·PEaware :: N6182G KSNA-KPSP

N6182G :: KSNA-KPSP

FLIGHT INFORMATION

Flight Status: Arrived
Operator: Privately registered:
United States
More flights under this callsign
Pilot: Paul A. (20189)
Aircraft: CESSNA 182 SKYLANE
(C182)
More flights by this aircraft type
Origin: KSNA John Wayne-Orange Co
United States
Destination: KPSP Palm Springs Intl
United States
More flights between these airports :: More routes between these airports
Route: +
File this flight plan on PilotEdge
Remarks:
Altitude:
(Current/Filed)
9,500ft
Speed:
(Current/Filed)
120kts
Departed: 05-Oct-18 07:37 AM
Arrived: 05-Oct-18 08:17 AM
Distance/Time
Traveled:
69nm/0:40
Distance/Time
To Go:
Arrived

Flight Plot

Page will automatically refresh every two minutes.


Map Options




Map Legend


Flown Route
Filed Route
Departure Airport
Arrival Airport
Navaid (VOR, NDB)
Fix

Horizontal Profiles

Position Reports

Time Latitude Longitude Heading Altitude Ground
Speed
05-Oct-18 07:24 33.672181 -117.867345 28 59ft 0kts
05-Oct-18 07:25 33.672181 -117.867345 28 59ft 0kts
05-Oct-18 07:26 33.672181 -117.867345 28 59ft 0kts
05-Oct-18 07:27 33.672183 -117.867344 28 59ft 0kts
05-Oct-18 07:28 33.672184 -117.867344 28 59ft 0kts
05-Oct-18 07:29 33.672185 -117.867343 28 59ft 0kts
05-Oct-18 07:30 33.672186 -117.867342 28 59ft 0kts
05-Oct-18 07:31 33.672187 -117.867341 28 59ft 0kts
05-Oct-18 07:32 33.672188 -117.867341 28 59ft 0kts
05-Oct-18 07:33 33.672189 -117.867340 28 59ft 0kts
05-Oct-18 07:34 33.672190 -117.867339 28 59ft 0kts
05-Oct-18 07:35 33.673596 -117.867110 334 59ft 9kts
05-Oct-18 07:36 33.676530 -117.865569 27 59ft 9kts
05-Oct-18 07:37 33.679219 -117.863876 27 59ft 9kts
05-Oct-18 07:38 33.680079 -117.864158 233 59ft 4kts
05-Oct-18 07:39 33.668997 -117.870679 192 613ft 71kts
05-Oct-18 07:40 33.660044 -117.838963 92 1624ft 112kts
05-Oct-18 07:41 33.658921 -117.797729 93 2537ft 134kts
05-Oct-18 07:42 33.657311 -117.749774 92 3171ft 145kts
05-Oct-18 07:43 33.655191 -117.703681 92 4139ft 130kts
05-Oct-18 07:44 33.653041 -117.668935 82 4968ft 120kts
05-Oct-18 07:45 33.672066 -117.633250 52 6160ft 105kts
05-Oct-18 07:46 33.678541 -117.599428 80 7141ft 102kts
05-Oct-18 07:47 33.683689 -117.572773 61 7975ft 95kts
05-Oct-18 07:48 33.692109 -117.545575 61 8876ft 85kts
05-Oct-18 07:49 33.700388 -117.517014 62 9489ft 99kts
05-Oct-18 07:50 33.711454 -117.478292 65 9499ft 136kts
05-Oct-18 07:51 33.723653 -117.435091 65 9481ft 132kts
05-Oct-18 07:52 33.735477 -117.393843 65 9507ft 133kts
05-Oct-18 07:53 33.747781 -117.350823 65 9506ft 136kts
05-Oct-18 07:54 33.760595 -117.305872 65 9500ft 145kts
05-Oct-18 07:55 33.773210 -117.261358 65 9500ft 138kts
05-Oct-18 07:56 33.785548 -117.217974 65 9510ft 136kts
05-Oct-18 07:57 33.798289 -117.173176 65 9516ft 144kts
05-Oct-18 07:58 33.811392 -117.126896 66 9137ft 142kts
05-Oct-18 07:59 33.824049 -117.082194 66 8358ft 145kts
05-Oct-18 08:00 33.835905 -117.039965 65 7542ft 122kts
05-Oct-18 08:01 33.847144 -117.000687 66 7522ft 136kts
05-Oct-18 08:02 33.859364 -116.957079 66 7514ft 137kts
05-Oct-18 08:03 33.871589 -116.913536 66 7509ft 142kts
05-Oct-18 08:04 33.883753 -116.869300 67 6643ft 136kts
05-Oct-18 08:05 33.893980 -116.829640 67 5735ft 119kts
05-Oct-18 08:06 33.904269 -116.791284 68 5520ft 132kts
05-Oct-18 08:07 33.915016 -116.751503 67 4674ft 116kts
05-Oct-18 08:08 33.925032 -116.713345 74 3818ft 122kts
05-Oct-18 08:09 33.926776 -116.674915 90 3007ft 98kts
05-Oct-18 08:10 33.925439 -116.633163 89 2974ft 139kts
05-Oct-18 08:11 33.923616 -116.590504 96 2947ft 105kts
05-Oct-18 08:12 33.910419 -116.559913 128 2700ft 104kts
05-Oct-18 08:13 33.889521 -116.533841 138 2280ft 118kts
05-Oct-18 08:14 33.867876 -116.511766 140 1904ft 98kts
05-Oct-18 08:15 33.844978 -116.490155 142 1711ft 102kts
05-Oct-18 08:16 33.821377 -116.469367 147 1394ft 114kts
05-Oct-18 08:17 33.803538 -116.470137 267 1076ft 72kts
05-Oct-18 08:18 33.812907 -116.490309 327 775ft 76kts
05-Oct-18 08:19 33.828743 -116.504038 321 480ft 38kts
05-Oct-18 08:20 33.828757 -116.503001 144 480ft 23kts
05-Oct-18 08:21 33.824690 -116.499195 135 480ft 14kts
05-Oct-18 08:22 33.823033 -116.497222 61 480ft 0kts
05-Oct-18 08:23 33.823033 -116.497222 61 480ft 0kts

Navigation Log

Ident Type
Flight plan parsing failed, navigation log unavailable